Terminal Aerodrome Forecast
Issued by NWS

Home | Current Version | Previous Version | Text Only | Print | Product List | Glossary On
Versions: 1 2 3 4 5 6 7 8 9 10 11 12 13 14 15 16 17 18 19 20 21 22 23
000
FTUS41 KBOX 182335
TAFMHT
TAF
KMHT 182335Z 1900/1924 13006KT P6SM BKN200
     FM190600 00000KT P6SM BKN090
     FM190800 VRB03KT P6SM SCT090
     FM191300 29007KT P6SM FEW250
     FM191600 31012G22KT P6SM FEW250=

USA.gov is the U.S. government's official web portal to all federal, state and local government web resources and services.